sensor_id;sensor_type;location;lat;lon;timestamp;temperature;humidity
40059;SHT31;25763;49.972;8.568;2023-03-03T00:00:43;4.11;63.19
40059;SHT31;25763;49.972;8.568;2023-03-03T00:03:10;4.10;63.65
40059;SHT31;25763;49.972;8.568;2023-03-03T00:05:37;4.10;63.50
40059;SHT31;25763;49.972;8.568;2023-03-03T00:08:03;4.01;64.24
40059;SHT31;25763;49.972;8.568;2023-03-03T00:10:29;4.00;64.23
40059;SHT31;25763;49.972;8.568;2023-03-03T00:12:54;4.01;64.01
40059;SHT31;25763;49.972;8.568;2023-03-03T00:15:22;4.06;63.93
40059;SHT31;25763;49.972;8.568;2023-03-03T00:17:48;4.06;64.19
40059;SHT31;25763;49.972;8.568;2023-03-03T00:20:30;4.06;64.32
40059;SHT31;25763;49.972;8.568;2023-03-03T00:23:19;4.06;64.04
40059;SHT31;25763;49.972;8.568;2023-03-03T00:25:48;4.00;64.59
40059;SHT31;25763;49.972;8.568;2023-03-03T00:28:28;3.93;65.20
40059;SHT31;25763;49.972;8.568;2023-03-03T00:30:57;3.89;65.83
40059;SHT31;25763;49.972;8.568;2023-03-03T00:33:31;3.89;65.52
40059;SHT31;25763;49.972;8.568;2023-03-03T00:36:35;3.86;66.05
40059;SHT31;25763;49.972;8.568;2023-03-03T00:39:18;3.93;65.25
40059;SHT31;25763;49.972;8.568;2023-03-03T00:41:43;3.94;64.91
40059;SHT31;25763;49.972;8.568;2023-03-03T00:44:44;3.92;64.66
40059;SHT31;25763;49.972;8.568;2023-03-03T00:50:23;3.79;65.53
40059;SHT31;25763;49.972;8.568;2023-03-03T00:52:57;3.69;67.03
40059;SHT31;25763;49.972;8.568;2023-03-03T00:55:24;3.59;67.55
40059;SHT31;25763;49.972;8.568;2023-03-03T00:57:49;3.57;67.47
40059;SHT31;25763;49.972;8.568;2023-03-03T01:00:15;3.64;66.96
40059;SHT31;25763;49.972;8.568;2023-03-03T01:02:40;3.71;66.18
40059;SHT31;25763;49.972;8.568;2023-03-03T01:05:06;3.69;65.65
40059;SHT31;25763;49.972;8.568;2023-03-03T01:07:31;3.69;65.32
40059;SHT31;25763;49.972;8.568;2023-03-03T01:09:57;3.62;66.69
40059;SHT31;25763;49.972;8.568;2023-03-03T01:12:22;3.59;66.34
40059;SHT31;25763;49.972;8.568;2023-03-03T01:14:48;3.57;67.12
40059;SHT31;25763;49.972;8.568;2023-03-03T01:17:17;3.55;66.78
40059;SHT31;25763;49.972;8.568;2023-03-03T01:19:42;3.55;66.36
40059;SHT31;25763;49.972;8.568;2023-03-03T01:22:08;3.55;66.11
40059;SHT31;25763;49.972;8.568;2023-03-03T01:24:33;3.54;66.11
40059;SHT31;25763;49.972;8.568;2023-03-03T01:26:58;3.50;66.23
40059;SHT31;25763;49.972;8.568;2023-03-03T01:29:24;3.47;66.36
40059;SHT31;25763;49.972;8.568;2023-03-03T01:31:49;3.47;66.41
40059;SHT31;25763;49.972;8.568;2023-03-03T01:34:14;3.40;66.49
40059;SHT31;25763;49.972;8.568;2023-03-03T01:36:40;3.40;66.31
40059;SHT31;25763;49.972;8.568;2023-03-03T01:39:05;3.33;67.82
40059;SHT31;25763;49.972;8.568;2023-03-03T01:41:31;3.34;67.38
40059;SHT31;25763;49.972;8.568;2023-03-03T01:43:58;3.31;67.29
40059;SHT31;25763;49.972;8.568;2023-03-03T01:48:51;3.26;67.48
40059;SHT31;25763;49.972;8.568;2023-03-03T01:51:22;3.24;67.11
40059;SHT31;25763;49.972;8.568;2023-03-03T01:53:52;3.23;67.42
40059;SHT31;25763;49.972;8.568;2023-03-03T01:56:19;3.20;67.62
40059;SHT31;25763;49.972;8.568;2023-03-03T01:58:48;3.13;69.40
40059;SHT31;25763;49.972;8.568;2023-03-03T02:01:18;3.12;69.21
40059;SHT31;25763;49.972;8.568;2023-03-03T02:03:44;3.10;68.99
40059;SHT31;25763;49.972;8.568;2023-03-03T02:06:13;3.09;68.73
40059;SHT31;25763;49.972;8.568;2023-03-03T02:08:50;3.07;68.06
40059;SHT31;25763;49.972;8.568;2023-03-03T02:11:17;3.06;67.85
40059;SHT31;25763;49.972;8.568;2023-03-03T02:13:44;3.02;68.27
40059;SHT31;25763;49.972;8.568;2023-03-03T02:16:09;2.93;70.11
40059;SHT31;25763;49.972;8.568;2023-03-03T02:18:35;2.88;70.25
40059;SHT31;25763;49.972;8.568;2023-03-03T02:23:42;2.78;70.05
40059;SHT31;25763;49.972;8.568;2023-03-03T02:26:14;2.80;70.19
40059;SHT31;25763;49.972;8.568;2023-03-03T02:28:40;2.75;70.47
40059;SHT31;25763;49.972;8.568;2023-03-03T02:31:16;2.74;70.07
40059;SHT31;25763;49.972;8.568;2023-03-03T02:33:44;2.60;72.09
40059;SHT31;25763;49.972;8.568;2023-03-03T02:36:34;2.47;73.38
40059;SHT31;25763;49.972;8.568;2023-03-03T02:39:10;2.37;73.92
40059;SHT31;25763;49.972;8.568;2023-03-03T02:41:43;2.39;73.82
40059;SHT31;25763;49.972;8.568;2023-03-03T02:44:16;2.37;73.81
40059;SHT31;25763;49.972;8.568;2023-03-03T02:46:44;2.30;74.38
40059;SHT31;25763;49.972;8.568;2023-03-03T02:49:12;2.22;75.03
40059;SHT31;25763;49.972;8.568;2023-03-03T02:51:38;2.13;75.48
40059;SHT31;25763;49.972;8.568;2023-03-03T02:54:04;2.13;75.61
40059;SHT31;25763;49.972;8.568;2023-03-03T02:56:30;2.16;75.45
40059;SHT31;25763;49.972;8.568;2023-03-03T02:58:55;2.29;74.35
40059;SHT31;25763;49.972;8.568;2023-03-03T03:01:21;2.29;74.54
40059;SHT31;25763;49.972;8.568;2023-03-03T03:03:47;2.08;75.97
40059;SHT31;25763;49.972;8.568;2023-03-03T03:06:13;1.99;76.24
40059;SHT31;25763;49.972;8.568;2023-03-03T03:08:39;1.91;76.79
40059;SHT31;25763;49.972;8.568;2023-03-03T03:11:04;1.97;76.68
40059;SHT31;25763;49.972;8.568;2023-03-03T03:13:32;1.99;76.88
40059;SHT31;25763;49.972;8.568;2023-03-03T03:15:59;1.94;77.02
40059;SHT31;25763;49.972;8.568;2023-03-03T03:18:25;1.81;77.65
40059;SHT31;25763;49.972;8.568;2023-03-03T03:20:51;1.84;77.74
40059;SHT31;25763;49.972;8.568;2023-03-03T03:23:16;1.87;77.72
40059;SHT31;25763;49.972;8.568;2023-03-03T03:25:42;1.95;77.42
40059;SHT31;25763;49.972;8.568;2023-03-03T03:28:15;2.02;76.82
40059;SHT31;25763;49.972;8.568;2023-03-03T03:30:42;2.02;77.33
40059;SHT31;25763;49.972;8.568;2023-03-03T03:33:08;1.99;77.73
40059;SHT31;25763;49.972;8.568;2023-03-03T03:35:35;2.02;77.63
40059;SHT31;25763;49.972;8.568;2023-03-03T03:38:01;2.04;77.70
40059;SHT31;25763;49.972;8.568;2023-03-03T03:40:26;2.06;77.32
40059;SHT31;25763;49.972;8.568;2023-03-03T03:42:53;2.05;77.71
40059;SHT31;25763;49.972;8.568;2023-03-03T03:45:18;2.09;77.60
40059;SHT31;25763;49.972;8.568;2023-03-03T03:47:44;2.08;77.36
40059;SHT31;25763;49.972;8.568;2023-03-03T03:50:09;2.06;77.85
40059;SHT31;25763;49.972;8.568;2023-03-03T03:52:35;1.98;78.09
40059;SHT31;25763;49.972;8.568;2023-03-03T03:55:00;1.95;78.43
40059;SHT31;25763;49.972;8.568;2023-03-03T03:57:26;1.93;78.43
40059;SHT31;25763;49.972;8.568;2023-03-03T03:59:51;1.81;78.83
40059;SHT31;25763;49.972;8.568;2023-03-03T04:02:17;1.80;78.96
40059;SHT31;25763;49.972;8.568;2023-03-03T04:04:42;1.74;78.97
40059;SHT31;25763;49.972;8.568;2023-03-03T04:07:08;1.71;79.31
40059;SHT31;25763;49.972;8.568;2023-03-03T04:09:33;1.73;79.49
40059;SHT31;25763;49.972;8.568;2023-03-03T04:11:59;1.70;79.54
40059;SHT31;25763;49.972;8.568;2023-03-03T04:14:24;1.71;79.53
40059;SHT31;25763;49.972;8.568;2023-03-03T04:16:50;1.70;79.58
40059;SHT31;25763;49.972;8.568;2023-03-03T04:19:15;1.76;79.54
40059;SHT31;25763;49.972;8.568;2023-03-03T04:21:41;1.76;79.40
40059;SHT31;25763;49.972;8.568;2023-03-03T04:24:06;1.70;79.56
40059;SHT31;25763;49.972;8.568;2023-03-03T04:26:31;1.63;79.78
40059;SHT31;25763;49.972;8.568;2023-03-03T04:28:57;1.58;80.17
40059;SHT31;25763;49.972;8.568;2023-03-03T04:31:23;1.63;79.86
40059;SHT31;25763;49.972;8.568;2023-03-03T04:33:50;1.58;80.04
40059;SHT31;25763;49.972;8.568;2023-03-03T04:36:16;1.55;80.33
40059;SHT31;25763;49.972;8.568;2023-03-03T04:38:42;1.51;80.53
40059;SHT31;25763;49.972;8.568;2023-03-03T04:41:07;1.49;80.54
40059;SHT31;25763;49.972;8.568;2023-03-03T04:43:32;1.52;80.69
40059;SHT31;25763;49.972;8.568;2023-03-03T04:45:58;1.53;80.69
40059;SHT31;25763;49.972;8.568;2023-03-03T04:48:23;1.55;80.56
40059;SHT31;25763;49.972;8.568;2023-03-03T04:50:48;1.55;80.84
40059;SHT31;25763;49.972;8.568;2023-03-03T04:53:14;1.53;80.77
40059;SHT31;25763;49.972;8.568;2023-03-03T04:55:39;1.51;80.88
40059;SHT31;25763;49.972;8.568;2023-03-03T04:58:05;1.48;81.00
40059;SHT31;25763;49.972;8.568;2023-03-03T05:00:31;1.48;80.92
40059;SHT31;25763;49.972;8.568;2023-03-03T05:02:56;1.43;81.18
40059;SHT31;25763;49.972;8.568;2023-03-03T05:05:22;1.38;81.25
40059;SHT31;25763;49.972;8.568;2023-03-03T05:07:47;1.36;81.32
40059;SHT31;25763;49.972;8.568;2023-03-03T05:10:13;1.35;81.44
40059;SHT31;25763;49.972;8.568;2023-03-03T05:12:38;1.32;81.62
40059;SHT31;25763;49.972;8.568;2023-03-03T05:15:04;1.30;81.63
40059;SHT31;25763;49.972;8.568;2023-03-03T05:17:30;1.30;81.68
40059;SHT31;25763;49.972;8.568;2023-03-03T05:19:55;1.28;81.78
40059;SHT31;25763;49.972;8.568;2023-03-03T05:22:22;1.28;81.76
40059;SHT31;25763;49.972;8.568;2023-03-03T05:24:47;1.25;81.85
40059;SHT31;25763;49.972;8.568;2023-03-03T05:27:14;1.25;81.83
40059;SHT31;25763;49.972;8.568;2023-03-03T05:29:40;1.24;81.80
40059;SHT31;25763;49.972;8.568;2023-03-03T05:32:05;1.25;81.86
40059;SHT31;25763;49.972;8.568;2023-03-03T05:34:31;1.23;81.74
40059;SHT31;25763;49.972;8.568;2023-03-03T05:36:56;1.21;81.80
40059;SHT31;25763;49.972;8.568;2023-03-03T05:39:22;1.21;81.81
40059;SHT31;25763;49.972;8.568;2023-03-03T05:41:47;1.20;81.82
40059;SHT31;25763;49.972;8.568;2023-03-03T05:44:13;1.20;81.95
40059;SHT31;25763;49.972;8.568;2023-03-03T05:46:38;1.16;81.99
40059;SHT31;25763;49.972;8.568;2023-03-03T05:49:04;1.23;81.83
40059;SHT31;25763;49.972;8.568;2023-03-03T05:51:29;1.17;81.93
40059;SHT31;25763;49.972;8.568;2023-03-03T05:53:54;1.11;82.05
40059;SHT31;25763;49.972;8.568;2023-03-03T05:56:20;1.11;82.21
40059;SHT31;25763;49.972;8.568;2023-03-03T05:58:45;1.04;82.11
40059;SHT31;25763;49.972;8.568;2023-03-03T06:01:11;1.00;82.47
40059;SHT31;25763;49.972;8.568;2023-03-03T06:03:36;0.94;82.49
40059;SHT31;25763;49.972;8.568;2023-03-03T06:06:02;0.92;82.90
40059;SHT31;25763;49.972;8.568;2023-03-03T06:08:27;0.94;82.82
40059;SHT31;25763;49.972;8.568;2023-03-03T06:10:53;0.93;82.76
40059;SHT31;25763;49.972;8.568;2023-03-03T06:13:19;0.86;83.07
40059;SHT31;25763;49.972;8.568;2023-03-03T06:15:44;0.89;82.89
40059;SHT31;25763;49.972;8.568;2023-03-03T06:18:09;0.86;83.03
40059;SHT31;25763;49.972;8.568;2023-03-03T06:20:35;0.83;83.29
40059;SHT31;25763;49.972;8.568;2023-03-03T06:23:01;0.84;83.28
40059;SHT31;25763;49.972;8.568;2023-03-03T06:25:26;0.80;83.25
40059;SHT31;25763;49.972;8.568;2023-03-03T06:27:52;0.76;83.38
40059;SHT31;25763;49.972;8.568;2023-03-03T06:30:17;0.83;83.34
40059;SHT31;25763;49.972;8.568;2023-03-03T06:32:43;0.80;83.52
40059;SHT31;25763;49.972;8.568;2023-03-03T06:35:09;0.76;83.64
40059;SHT31;25763;49.972;8.568;2023-03-03T06:37:34;0.66;84.01
40059;SHT31;25763;49.972;8.568;2023-03-03T06:40:00;0.65;84.31
40059;SHT31;25763;49.972;8.568;2023-03-03T06:42:25;0.72;84.36
40059;SHT31;25763;49.972;8.568;2023-03-03T06:44:50;0.83;84.11
40059;SHT31;25763;49.972;8.568;2023-03-03T06:47:16;0.76;84.06
40059;SHT31;25763;49.972;8.568;2023-03-03T06:49:41;0.87;83.98
40059;SHT31;25763;49.972;8.568;2023-03-03T06:52:17;1.07;83.60
40059;SHT31;25763;49.972;8.568;2023-03-03T06:54:43;1.04;83.25
40059;SHT31;25763;49.972;8.568;2023-03-03T06:57:35;1.05;83.27
40059;SHT31;25763;49.972;8.568;2023-03-03T07:02:42;0.99;83.69
40059;SHT31;25763;49.972;8.568;2023-03-03T07:05:16;1.18;83.35
40059;SHT31;25763;49.972;8.568;2023-03-03T07:07:41;1.11;83.62
40059;SHT31;25763;49.972;8.568;2023-03-03T07:10:33;1.23;83.49
40059;SHT31;25763;49.972;8.568;2023-03-03T07:13:24;1.36;83.02
40059;SHT31;25763;49.972;8.568;2023-03-03T07:15:55;1.34;82.96
40059;SHT31;25763;49.972;8.568;2023-03-03T07:21:32;1.45;82.95
40059;SHT31;25763;49.972;8.568;2023-03-03T07:23:59;1.49;82.62
40059;SHT31;25763;49.972;8.568;2023-03-03T07:26:27;1.67;82.20
40059;SHT31;25763;49.972;8.568;2023-03-03T07:29:12;1.60;82.02
40059;SHT31;25763;49.972;8.568;2023-03-03T07:31:45;1.60;82.12
40059;SHT31;25763;49.972;8.568;2023-03-03T07:36:56;1.83;81.59
40059;SHT31;25763;49.972;8.568;2023-03-03T07:42:01;1.81;81.48
40059;SHT31;25763;49.972;8.568;2023-03-03T07:44:36;2.02;80.88
40059;SHT31;25763;49.972;8.568;2023-03-03T07:47:38;1.93;81.03
40059;SHT31;25763;49.972;8.568;2023-03-03T07:50:17;1.98;80.48
40059;SHT31;25763;49.972;8.568;2023-03-03T07:52:54;2.12;80.41
40059;SHT31;25763;49.972;8.568;2023-03-03T07:55:35;2.05;80.20
40059;SHT31;25763;49.972;8.568;2023-03-03T07:58:19;2.13;80.32
40059;SHT31;25763;49.972;8.568;2023-03-03T08:03:43;2.25;80.26
40059;SHT31;25763;49.972;8.568;2023-03-03T08:06:41;2.23;79.75
40059;SHT31;25763;49.972;8.568;2023-03-03T08:11:45;2.22;79.99
40059;SHT31;25763;49.972;8.568;2023-03-03T08:14:14;2.32;79.55
40059;SHT31;25763;49.972;8.568;2023-03-03T08:16:40;2.30;79.35
40059;SHT31;25763;49.972;8.568;2023-03-03T08:19:06;2.35;78.72
40059;SHT31;25763;49.972;8.568;2023-03-03T08:21:32;2.37;78.95
40059;SHT31;25763;49.972;8.568;2023-03-03T08:23:59;2.61;78.50
40059;SHT31;25763;49.972;8.568;2023-03-03T08:26:25;2.61;78.35
40059;SHT31;25763;49.972;8.568;2023-03-03T08:28:52;2.68;78.14
40059;SHT31;25763;49.972;8.568;2023-03-03T08:31:18;2.84;77.87
40059;SHT31;25763;49.972;8.568;2023-03-03T08:33:44;2.77;77.44
40059;SHT31;25763;49.972;8.568;2023-03-03T08:36:10;2.93;77.68
40059;SHT31;25763;49.972;8.568;2023-03-03T08:38:35;3.03;77.45
40059;SHT31;25763;49.972;8.568;2023-03-03T08:41:02;3.19;76.99
40059;SHT31;25763;49.972;8.568;2023-03-03T08:43:27;3.47;76.19
40059;SHT31;25763;49.972;8.568;2023-03-03T08:45:57;4.03;75.34
40059;SHT31;25763;49.972;8.568;2023-03-03T08:48:24;3.54;75.09
40059;SHT31;25763;49.972;8.568;2023-03-03T08:50:50;3.62;74.76
40059;SHT31;25763;49.972;8.568;2023-03-03T08:53:17;3.12;76.09
40059;SHT31;25763;49.972;8.568;2023-03-03T08:55:43;3.31;76.22
40059;SHT31;25763;49.972;8.568;2023-03-03T08:58:08;3.19;76.26
40059;SHT31;25763;49.972;8.568;2023-03-03T09:00:34;3.22;76.21
40059;SHT31;25763;49.972;8.568;2023-03-03T09:02:59;3.19;76.31
40059;SHT31;25763;49.972;8.568;2023-03-03T09:05:26;3.16;76.45
40059;SHT31;25763;49.972;8.568;2023-03-03T09:07:52;3.31;75.97
40059;SHT31;25763;49.972;8.568;2023-03-03T09:10:22;3.30;75.39
40059;SHT31;25763;49.972;8.568;2023-03-03T09:12:52;3.48;75.18
40059;SHT31;25763;49.972;8.568;2023-03-03T09:15:24;3.52;74.93
40059;SHT31;25763;49.972;8.568;2023-03-03T09:17:50;3.68;74.68
40059;SHT31;25763;49.972;8.568;2023-03-03T09:20:38;3.65;74.27
40059;SHT31;25763;49.972;8.568;2023-03-03T09:25:48;3.94;73.47
40059;SHT31;25763;49.972;8.568;2023-03-03T09:28:30;4.39;72.85
40059;SHT31;25763;49.972;8.568;2023-03-03T09:30:59;4.83;71.66
40059;SHT31;25763;49.972;8.568;2023-03-03T09:33:37;4.65;71.04
40059;SHT31;25763;49.972;8.568;2023-03-03T09:38:46;4.68;71.14
40059;SHT31;25763;49.972;8.568;2023-03-03T09:51:58;6.03;67.32
40059;SHT31;25763;49.972;8.568;2023-03-03T10:00:35;6.02;67.27
40059;SHT31;25763;49.972;8.568;2023-03-03T10:05:55;5.22;68.34
40059;SHT31;25763;49.972;8.568;2023-03-03T10:09:04;5.12;68.99
40059;SHT31;25763;49.972;8.568;2023-03-03T10:11:54;5.19;68.88
40059;SHT31;25763;49.972;8.568;2023-03-03T10:17:47;5.23;68.13
40059;SHT31;25763;49.972;8.568;2023-03-03T10:22:47;6.06;66.75
40059;SHT31;25763;49.972;8.568;2023-03-03T10:31:08;5.80;66.47
40059;SHT31;25763;49.972;8.568;2023-03-03T10:36:29;5.87;65.71
40059;SHT31;25763;49.972;8.568;2023-03-03T10:41:53;5.82;66.45
40059;SHT31;25763;49.972;8.568;2023-03-03T10:47:52;6.72;62.99
40059;SHT31;25763;49.972;8.568;2023-03-03T10:53:21;7.62;61.26
40059;SHT31;25763;49.972;8.568;2023-03-03T11:01:01;6.88;63.18
40059;SHT31;25763;49.972;8.568;2023-03-03T11:05:59;7.24;63.31
40059;SHT31;25763;49.972;8.568;2023-03-03T11:08:42;8.11;62.39
40059;SHT31;25763;49.972;8.568;2023-03-03T11:13:49;8.01;60.78
40059;SHT31;25763;49.972;8.568;2023-03-03T11:19:12;7.46;60.68
40059;SHT31;25763;49.972;8.568;2023-03-03T11:25:12;7.70;60.45
40059;SHT31;25763;49.972;8.568;2023-03-03T11:33:09;8.08;59.86
40059;SHT31;25763;49.972;8.568;2023-03-03T11:41:26;8.67;59.53
40059;SHT31;25763;49.972;8.568;2023-03-03T11:44:01;9.16;58.15
40059;SHT31;25763;49.972;8.568;2023-03-03T11:46:48;9.62;57.32
40059;SHT31;25763;49.972;8.568;2023-03-03T11:49:24;9.29;57.34
40059;SHT31;25763;49.972;8.568;2023-03-03T11:52:09;8.89;56.80
40059;SHT31;25763;49.972;8.568;2023-03-03T11:54:51;8.70;57.18
40059;SHT31;25763;49.972;8.568;2023-03-03T11:57:32;8.22;57.36
40059;SHT31;25763;49.972;8.568;2023-03-03T12:00:05;8.77;58.17
40059;SHT31;25763;49.972;8.568;2023-03-03T12:05:36;8.65;57.17
40059;SHT31;25763;49.972;8.568;2023-03-03T12:08:56;8.45;57.19
40059;SHT31;25763;49.972;8.568;2023-03-03T12:11:53;8.11;57.01
40059;SHT31;25763;49.972;8.568;2023-03-03T12:22:57;7.89;58.33
40059;SHT31;25763;49.972;8.568;2023-03-03T12:25:50;8.89;57.70
40059;SHT31;25763;49.972;8.568;2023-03-03T12:28:31;8.60;56.28
40059;SHT31;25763;49.972;8.568;2023-03-03T12:31:15;8.24;57.14
40059;SHT31;25763;49.972;8.568;2023-03-03T12:36:35;9.08;56.10
40059;SHT31;25763;49.972;8.568;2023-03-03T12:42:15;9.05;54.75
40059;SHT31;25763;49.972;8.568;2023-03-03T12:44:54;8.98;55.28
40059;SHT31;25763;49.972;8.568;2023-03-03T12:47:28;9.64;56.21
40059;SHT31;25763;49.972;8.568;2023-03-03T12:50:02;9.55;55.18
40059;SHT31;25763;49.972;8.568;2023-03-03T12:55:14;9.15;54.42
40059;SHT31;25763;49.972;8.568;2023-03-03T12:57:54;9.47;55.61
40059;SHT31;25763;49.972;8.568;2023-03-03T13:00:46;9.82;53.71
40059;SHT31;25763;49.972;8.568;2023-03-03T13:03:34;9.19;53.56
40059;SHT31;25763;49.972;8.568;2023-03-03T13:11:44;9.29;54.16
40059;SHT31;25763;49.972;8.568;2023-03-03T13:14:36;9.24;54.01
40059;SHT31;25763;49.972;8.568;2023-03-03T13:17:28;8.77;53.90
40059;SHT31;25763;49.972;8.568;2023-03-03T13:19:59;8.71;54.37
40059;SHT31;25763;49.972;8.568;2023-03-03T13:25:40;8.77;54.80
40059;SHT31;25763;49.972;8.568;2023-03-03T13:31:07;8.97;54.57
40059;SHT31;25763;49.972;8.568;2023-03-03T13:33:36;9.12;54.40
40059;SHT31;25763;49.972;8.568;2023-03-03T13:36:06;9.12;54.19
40059;SHT31;25763;49.972;8.568;2023-03-03T13:38:38;8.85;54.45
40059;SHT31;25763;49.972;8.568;2023-03-03T13:43:49;8.78;54.08
40059;SHT31;25763;49.972;8.568;2023-03-03T13:51:43;8.94;53.43
40059;SHT31;25763;49.972;8.568;2023-03-03T13:59:50;8.68;52.94
40059;SHT31;25763;49.972;8.568;2023-03-03T14:07:58;9.47;51.71
40059;SHT31;25763;49.972;8.568;2023-03-03T14:10:29;9.30;52.13
40059;SHT31;25763;49.972;8.568;2023-03-03T14:13:08;9.20;52.71
40059;SHT31;25763;49.972;8.568;2023-03-03T14:15:58;9.23;52.66
40059;SHT31;25763;49.972;8.568;2023-03-03T14:18:32;8.89;52.77
40059;SHT31;25763;49.972;8.568;2023-03-03T14:21:27;8.95;53.34
40059;SHT31;25763;49.972;8.568;2023-03-03T14:31:54;9.95;53.10
40059;SHT31;25763;49.972;8.568;2023-03-03T14:36:49;10.16;51.76
40059;SHT31;25763;49.972;8.568;2023-03-03T14:39:35;10.38;51.98
40059;SHT31;25763;49.972;8.568;2023-03-03T14:42:09;10.13;52.06
40059;SHT31;25763;49.972;8.568;2023-03-03T14:44:49;9.48;53.06
40059;SHT31;25763;49.972;8.568;2023-03-03T14:49:46;9.09;54.06
40059;SHT31;25763;49.972;8.568;2023-03-03T14:54:42;9.08;54.43
40059;SHT31;25763;49.972;8.568;2023-03-03T14:59:40;8.98;54.38
40059;SHT31;25763;49.972;8.568;2023-03-03T15:04:44;8.57;55.10
40059;SHT31;25763;49.972;8.568;2023-03-03T15:07:36;8.85;55.23
40059;SHT31;25763;49.972;8.568;2023-03-03T15:10:03;8.67;54.69
40059;SHT31;25763;49.972;8.568;2023-03-03T15:17:29;8.68;54.81
40059;SHT31;25763;49.972;8.568;2023-03-03T15:22:58;8.80;54.24
40059;SHT31;25763;49.972;8.568;2023-03-03T15:25:39;8.63;54.32
40059;SHT31;25763;49.972;8.568;2023-03-03T15:28:24;8.47;54.73
40059;SHT31;25763;49.972;8.568;2023-03-03T15:31:27;8.43;55.02
40059;SHT31;25763;49.972;8.568;2023-03-03T15:34:21;8.32;55.13
40059;SHT31;25763;49.972;8.568;2023-03-03T15:39:52;8.28;55.23
40059;SHT31;25763;49.972;8.568;2023-03-03T15:45:26;8.25;55.67
40059;SHT31;25763;49.972;8.568;2023-03-03T15:50:48;8.24;55.83
40059;SHT31;25763;49.972;8.568;2023-03-03T15:56:43;8.05;56.24
40059;SHT31;25763;49.972;8.568;2023-03-03T16:04:35;7.79;56.76
40059;SHT31;25763;49.972;8.568;2023-03-03T16:13:10;7.76;56.71
40059;SHT31;25763;49.972;8.568;2023-03-03T16:18:45;7.66;56.97
40059;SHT31;25763;49.972;8.568;2023-03-03T16:21:48;7.65;56.66
40059;SHT31;25763;49.972;8.568;2023-03-03T16:30:17;7.59;56.76
40059;SHT31;25763;49.972;8.568;2023-03-03T16:32:52;7.59;56.93
40059;SHT31;25763;49.972;8.568;2023-03-03T16:35:25;7.52;56.83
40059;SHT31;25763;49.972;8.568;2023-03-03T16:37:58;7.45;56.46
40059;SHT31;25763;49.972;8.568;2023-03-03T16:40:43;7.36;56.75
40059;SHT31;25763;49.972;8.568;2023-03-03T16:45:37;7.24;57.29
40059;SHT31;25763;49.972;8.568;2023-03-03T16:50:52;7.20;57.36
40059;SHT31;25763;49.972;8.568;2023-03-03T16:59:06;7.06;57.51
40059;SHT31;25763;49.972;8.568;2023-03-03T17:01:49;7.00;57.45
40059;SHT31;25763;49.972;8.568;2023-03-03T17:10:23;6.78;58.51
40059;SHT31;25763;49.972;8.568;2023-03-03T17:13:15;6.75;58.74
40059;SHT31;25763;49.972;8.568;2023-03-03T17:15:53;6.64;59.06
40059;SHT31;25763;49.972;8.568;2023-03-03T17:21:01;6.52;59.70
40059;SHT31;25763;49.972;8.568;2023-03-03T17:23:41;6.48;59.90
40059;SHT31;25763;49.972;8.568;2023-03-03T17:26:17;6.37;60.34
40059;SHT31;25763;49.972;8.568;2023-03-03T17:31:44;6.20;61.03
40059;SHT31;25763;49.972;8.568;2023-03-03T17:34:28;6.13;61.15
40059;SHT31;25763;49.972;8.568;2023-03-03T17:37:14;6.09;61.52
40059;SHT31;25763;49.972;8.568;2023-03-03T17:39:57;6.05;61.60
40059;SHT31;25763;49.972;8.568;2023-03-03T17:45:13;5.89;62.26
40059;SHT31;25763;49.972;8.568;2023-03-03T17:47:52;5.94;62.16
40059;SHT31;25763;49.972;8.568;2023-03-03T17:53:26;5.78;63.06
40059;SHT31;25763;49.972;8.568;2023-03-03T18:14:56;5.35;64.92
40059;SHT31;25763;49.972;8.568;2023-03-03T18:17:40;5.28;65.15
40059;SHT31;25763;49.972;8.568;2023-03-03T18:20:36;5.28;65.08
40059;SHT31;25763;49.972;8.568;2023-03-03T18:23:40;5.23;65.21
40059;SHT31;25763;49.972;8.568;2023-03-03T18:26:40;5.21;65.23
40059;SHT31;25763;49.972;8.568;2023-03-03T18:29:18;5.18;65.30
40059;SHT31;25763;49.972;8.568;2023-03-03T18:34:40;5.08;65.60
40059;SHT31;25763;49.972;8.568;2023-03-03T18:42:44;5.03;65.74
40059;SHT31;25763;49.972;8.568;2023-03-03T18:50:32;4.98;65.84
40059;SHT31;25763;49.972;8.568;2023-03-03T18:55:56;4.93;66.26
40059;SHT31;25763;49.972;8.568;2023-03-03T19:03:55;4.80;66.60
40059;SHT31;25763;49.972;8.568;2023-03-03T19:08:56;4.81;66.68
40059;SHT31;25763;49.972;8.568;2023-03-03T19:14:29;4.80;66.76
40059;SHT31;25763;49.972;8.568;2023-03-03T19:17:39;4.70;67.10
40059;SHT31;25763;49.972;8.568;2023-03-03T19:20:11;4.65;67.37
40059;SHT31;25763;49.972;8.568;2023-03-03T19:22:50;4.56;67.59
40059;SHT31;25763;49.972;8.568;2023-03-03T19:25:29;4.45;67.88
40059;SHT31;25763;49.972;8.568;2023-03-03T19:30:55;4.27;68.46
40059;SHT31;25763;49.972;8.568;2023-03-03T19:39:19;4.20;68.16
40059;SHT31;25763;49.972;8.568;2023-03-03T19:45:04;4.28;67.83
40059;SHT31;25763;49.972;8.568;2023-03-03T19:50:24;4.10;68.37
40059;SHT31;25763;49.972;8.568;2023-03-03T19:53:22;4.10;68.42
40059;SHT31;25763;49.972;8.568;2023-03-03T19:58:35;4.03;68.33
40059;SHT31;25763;49.972;8.568;2023-03-03T20:03:58;3.94;68.74
40059;SHT31;25763;49.972;8.568;2023-03-03T20:06:43;3.90;68.46
40059;SHT31;25763;49.972;8.568;2023-03-03T20:12:37;3.79;68.07
40059;SHT31;25763;49.972;8.568;2023-03-03T20:15:14;3.72;68.30
40059;SHT31;25763;49.972;8.568;2023-03-03T20:18:52;3.69;68.35
40059;SHT31;25763;49.972;8.568;2023-03-03T20:23:40;3.59;68.74
40059;SHT31;25763;49.972;8.568;2023-03-03T20:34:57;3.36;69.37
40059;SHT31;25763;49.972;8.568;2023-03-03T20:37:42;3.28;69.34
40059;SHT31;25763;49.972;8.568;2023-03-03T20:40:18;3.27;69.24
40059;SHT31;25763;49.972;8.568;2023-03-03T20:42:59;3.19;69.11
40059;SHT31;25763;49.972;8.568;2023-03-03T20:51:13;3.10;69.18
40059;SHT31;25763;49.972;8.568;2023-03-03T20:53:52;3.05;69.39
40059;SHT31;25763;49.972;8.568;2023-03-03T20:56:29;3.00;69.86
40059;SHT31;25763;49.972;8.568;2023-03-03T20:59:14;2.75;70.86
40059;SHT31;25763;49.972;8.568;2023-03-03T21:01:47;2.65;71.52
40059;SHT31;25763;49.972;8.568;2023-03-03T21:04:29;2.72;71.33
40059;SHT31;25763;49.972;8.568;2023-03-03T21:06:55;2.42;72.47
40059;SHT31;25763;49.972;8.568;2023-03-03T21:11:56;2.56;71.75
40059;SHT31;25763;49.972;8.568;2023-03-03T21:14:33;2.58;71.41
40059;SHT31;25763;49.972;8.568;2023-03-03T21:17:22;2.60;71.44
40059;SHT31;25763;49.972;8.568;2023-03-03T21:19:48;2.57;71.07
40059;SHT31;25763;49.972;8.568;2023-03-03T21:22:13;2.54;71.06
40059;SHT31;25763;49.972;8.568;2023-03-03T21:30:05;2.52;71.26
40059;SHT31;25763;49.972;8.568;2023-03-03T21:32:43;2.49;71.34
40059;SHT31;25763;49.972;8.568;2023-03-03T21:35:15;2.43;71.62
40059;SHT31;25763;49.972;8.568;2023-03-03T21:37:43;2.42;71.66
40059;SHT31;25763;49.972;8.568;2023-03-03T21:40:18;2.42;71.58
40059;SHT31;25763;49.972;8.568;2023-03-03T21:42:45;2.39;71.35
40059;SHT31;25763;49.972;8.568;2023-03-03T21:45:12;2.35;71.23
40059;SHT31;25763;49.972;8.568;2023-03-03T21:47:38;2.29;71.30
40059;SHT31;25763;49.972;8.568;2023-03-03T21:50:04;2.25;71.25
40059;SHT31;25763;49.972;8.568;2023-03-03T21:52:29;2.21;71.82